Clare Christine — V2DT7 — position and weather

sailwx.info

Track history (hours):
 
Tides and Currents Weather Stations Pressure Air Temp Water Temp Dewpoint Dewpoint Depression Visibility Wind Speed Wind Dir Waves Ship Positions

Clare Christine

Last reported at 2016-Sep-29 23:29 UTC. Time now 2016-Sep-30 01:31 UTC.
Position N 53°45' W 000°16'.

Length 89 m; draft 5.5 m.

Type: Cargo ship. MMSI: 305379000.

Date/timePositionNaut miles runAvg speedWind from/ knotsBaromVisibWave heightAir tempDewpointWater temp
2016-Sep-29 23:29N 53°45' W 000°16'0 0.0
2016-Sep-29 21:32N 53°45' W 000°16'0 0.0
2016-Sep-29 20:32N 53°45' W 000°16'0 0.0
2016-Sep-29 19:32N 53°45' W 000°16'0 0.0
2016-Sep-29 16:32N 53°45' W 000°16'0 0.0
2016-Sep-29 15:32N 53°45' W 000°16'0 0.0
2016-Sep-29 14:32N 53°45' W 000°16'0 0.0
2016-Sep-29 13:32N 53°45' W 000°16'0 0.0
2016-Sep-29 08:32N 53°45' W 000°16'0 0.0
2016-Sep-29 07:32N 53°45' W 000°16'0 0.0
2016-Sep-29 00:32N 53°45' W 000°16'0 0.0
2016-Sep-28 21:29N 53°45' W 000°16'0 0.0
2016-Sep-28 19:32N 53°45' W 000°16'0 0.0
2016-Sep-28 16:32N 53°45' W 000°16'0 0.0
2016-Sep-28 15:32N 53°45' W 000°16'0 0.0
2016-Sep-28 12:32N 53°45' W 000°16'0 0.0
2016-Sep-28 08:32N 53°45' W 000°16'0 0.0
2016-Sep-28 03:32N 53°45' W 000°16'0 0.0
2016-Sep-28 02:32N 53°45' W 000°16'0 0.0
2016-Sep-28 01:32N 53°45' W 000°16'0 0.0
2016-Sep-27 23:32N 53°45' W 000°16'0 0.0
2016-Sep-27 19:29N 53°45' W 000°16'0 0.0
2016-Sep-27 14:32N 53°45' W 000°16'0 0.0
2016-Sep-27 13:32N 53°45' W 000°16'0 0.0
2016-Sep-27 10:29N 53°45' W 000°16'0 0.0
2016-Sep-27 00:32N 53°45' W 000°16'0 0.0
2016-Sep-26 20:32N 53°45' W 000°16'0 0.0
2016-Sep-26 19:32N 53°45' W 000°16'0 0.0
2016-Sep-26 15:32N 53°45' W 000°16'1 0.3
2016-Sep-26 13:33N 53°44' W 000°17'2010.0
2016-Sep-26 11:34N 53°33' E 000°11'22 7.2
2016-Sep-26 08:33N 53°24' E 000°44'43 7.1
2016-Sep-26 02:33N 52°56' E 001°37'7 7.4
2016-Sep-26 01:33N 52°51' E 001°47'8 8.2
2016-Sep-26 00:33N 52°49' E 001°60'63 7.9
2016-Sep-25 16:33N 51°45' E 002°06'4 3.9
2016-Sep-25 15:33N 51°42' E 002°03'4 4.0
2016-Sep-25 14:34N 51°39' E 001°59'10 4.8
2016-Sep-25 12:33N 51°31' E 001°50'6 5.7
2016-Sep-25 11:33N 51°26' E 001°46'6 6.4
2016-Sep-25 10:33N 51°20' E 001°42'7 6.8
2016-Sep-25 09:33N 51°14' E 001°39'18 9.2
2016-Sep-25 07:33N 50°57' E 001°26'50 7.1
2016-Sep-25 00:31N 50°25' E 000°26'9 4.7
2016-Sep-24 22:33N 50°23' E 000°12'4 4.2
2016-Sep-24 21:33N 50°22' E 000°06'9 4.3
2016-Sep-24 19:33N 50°19' W 000°08'5 4.5
2016-Sep-24 18:33N 50°18' W 000°14'5 4.9
2016-Sep-24 17:33N 50°16' W 000°22'6 5.6
2016-Sep-24 16:33N 50°15' W 000°30'20 9.8
2016-Sep-24 14:33N 50°09' W 000°59'101 9.1
2016-Sep-24 03:32N 49°32' W 003°25'9 9.5
2016-Sep-24 02:33N 49°27' W 003°36'10 9.6
2016-Sep-24 01:33N 49°21' W 003°48'10 9.8
2016-Sep-24 00:31N 49°15' W 003°60'5110.4
2016-Sep-23 19:33N 48°44' W 005°03'2010.1
2016-Sep-23 17:33N 48°30' W 005°24'9 9.3
2016-Sep-23 16:33N 48°21' W 005°21'9 8.9
2016-Sep-23 15:33N 48°12' W 005°17'17 8.4
2016-Sep-23 13:33N 47°58' W 005°04'35 8.6
2016-Sep-23 09:29N 47°37' W 004°22'28 9.4
2016-Sep-23 06:33N 47°20' W 003°50'19 9.3
2016-Sep-23 04:33N 47°09' W 003°27'9 9.2
2016-Sep-23 03:33N 47°04' W 003°16'9 9.2
2016-Sep-23 02:33N 46°59' W 003°05'9 9.3
2016-Sep-23 01:33N 46°53' W 002°54'10 9.3
2016-Sep-23 00:32N 46°48' W 002°42'11 8.8
2016-Sep-22 23:16N 46°42' W 002°29'24 9.0
2016-Sep-22 20:33N 46°30' W 001°58'7 0.9
2016-Sep-22 12:33N 46°30' W 001°47'0 0.0
2016-Sep-22 04:33N 46°30' W 001°47'0 0.0
2016-Sep-22 03:33N 46°30' W 001°47'0 0.0
2016-Sep-22 00:33N 46°30' W 001°47'0 0.0
2016-Sep-21 23:33N 46°30' W 001°47'0 0.0
2016-Sep-21 22:33N 46°30' W 001°47'0 0.0
2016-Sep-21 19:33N 46°30' W 001°47'0 0.0
2016-Sep-21 16:33N 46°30' W 001°47'0 0.0
2016-Sep-21 09:33N 46°30' W 001°47'0 0.0
2016-Sep-21 08:33N 46°30' W 001°47'0 0.0
2016-Sep-21 05:32N 46°30' W 001°47'9 4.5
2016-Sep-21 03:33N 46°21' W 001°51'1111.0
2016-Sep-21 02:34N 46°10' W 001°49'  
Track history (hours):
 
Tides and Currents Weather Stations Pressure Air Temp Water Temp Dewpoint Dewpoint Depression Visibility Wind Speed Wind Dir Waves Ship Positions

Clare Christine

Last reported at 2016-Sep-29 23:29 UTC. Time now 2016-Sep-30 01:31 UTC.
Position N 53°45' W 000°16'.

Length 89 m; draft 5.5 m.

Type: Cargo ship. MMSI: 305379000.

Date/timePositionNaut miles runAvg speedWind from/ knotsBaromVisibWave heightAir tempDewpointWater temp
2016-Sep-29 23:29N 53°45' W 000°16'0 0.0
2016-Sep-29 21:32N 53°45' W 000°16'0 0.0
2016-Sep-29 20:32N 53°45' W 000°16'0 0.0
2016-Sep-29 19:32N 53°45' W 000°16'0 0.0
2016-Sep-29 16:32N 53°45' W 000°16'0 0.0
2016-Sep-29 15:32N 53°45' W 000°16'0 0.0
2016-Sep-29 14:32N 53°45' W 000°16'0 0.0
2016-Sep-29 13:32N 53°45' W 000°16'0 0.0
2016-Sep-29 08:32N 53°45' W 000°16'0 0.0
2016-Sep-29 07:32N 53°45' W 000°16'0 0.0
2016-Sep-29 00:32N 53°45' W 000°16'0 0.0
2016-Sep-28 21:29N 53°45' W 000°16'0 0.0
2016-Sep-28 19:32N 53°45' W 000°16'0 0.0
2016-Sep-28 16:32N 53°45' W 000°16'0 0.0
2016-Sep-28 15:32N 53°45' W 000°16'0 0.0
2016-Sep-28 12:32N 53°45' W 000°16'0 0.0
2016-Sep-28 08:32N 53°45' W 000°16'0 0.0
2016-Sep-28 03:32N 53°45' W 000°16'0 0.0
2016-Sep-28 02:32N 53°45' W 000°16'0 0.0
2016-Sep-28 01:32N 53°45' W 000°16'0 0.0
2016-Sep-27 23:32N 53°45' W 000°16'0 0.0
2016-Sep-27 19:29N 53°45' W 000°16'0 0.0
2016-Sep-27 14:32N 53°45' W 000°16'0 0.0
2016-Sep-27 13:32N 53°45' W 000°16'0 0.0
2016-Sep-27 10:29N 53°45' W 000°16'0 0.0
2016-Sep-27 00:32N 53°45' W 000°16'0 0.0
2016-Sep-26 20:32N 53°45' W 000°16'0 0.0
2016-Sep-26 19:32N 53°45' W 000°16'0 0.0
2016-Sep-26 15:32N 53°45' W 000°16'1 0.3
2016-Sep-26 13:33N 53°44' W 000°17'2010.0
2016-Sep-26 11:34N 53°33' E 000°11'22 7.2
2016-Sep-26 08:33N 53°24' E 000°44'43 7.1
2016-Sep-26 02:33N 52°56' E 001°37'7 7.4
2016-Sep-26 01:33N 52°51' E 001°47'8 8.2
2016-Sep-26 00:33N 52°49' E 001°60'63 7.9
2016-Sep-25 16:33N 51°45' E 002°06'4 3.9
2016-Sep-25 15:33N 51°42' E 002°03'4 4.0
2016-Sep-25 14:34N 51°39' E 001°59'10 4.8
2016-Sep-25 12:33N 51°31' E 001°50'6 5.7
2016-Sep-25 11:33N 51°26' E 001°46'6 6.4
2016-Sep-25 10:33N 51°20' E 001°42'7 6.8
2016-Sep-25 09:33N 51°14' E 001°39'18 9.2
2016-Sep-25 07:33N 50°57' E 001°26'50 7.1
2016-Sep-25 00:31N 50°25' E 000°26'9 4.7
2016-Sep-24 22:33N 50°23' E 000°12'4 4.2
2016-Sep-24 21:33N 50°22' E 000°06'9 4.3
2016-Sep-24 19:33N 50°19' W 000°08'5 4.5
2016-Sep-24 18:33N 50°18' W 000°14'5 4.9
2016-Sep-24 17:33N 50°16' W 000°22'6 5.6
2016-Sep-24 16:33N 50°15' W 000°30'20 9.8
2016-Sep-24 14:33N 50°09' W 000°59'101 9.1
2016-Sep-24 03:32N 49°32' W 003°25'9 9.5
2016-Sep-24 02:33N 49°27' W 003°36'10 9.6
2016-Sep-24 01:33N 49°21' W 003°48'10 9.8
2016-Sep-24 00:31N 49°15' W 003°60'5110.4
2016-Sep-23 19:33N 48°44' W 005°03'2010.1
2016-Sep-23 17:33N 48°30' W 005°24'9 9.3
2016-Sep-23 16:33N 48°21' W 005°21'9 8.9
2016-Sep-23 15:33N 48°12' W 005°17'17 8.4
2016-Sep-23 13:33N 47°58' W 005°04'35 8.6
2016-Sep-23 09:29N 47°37' W 004°22'28 9.4
2016-Sep-23 06:33N 47°20' W 003°50'19 9.3
2016-Sep-23 04:33N 47°09' W 003°27'9 9.2
2016-Sep-23 03:33N 47°04' W 003°16'9 9.2
2016-Sep-23 02:33N 46°59' W 003°05'9 9.3
2016-Sep-23 01:33N 46°53' W 002°54'10 9.3
2016-Sep-23 00:32N 46°48' W 002°42'11 8.8
2016-Sep-22 23:16N 46°42' W 002°29'24 9.0
2016-Sep-22 20:33N 46°30' W 001°58'7 0.9
2016-Sep-22 12:33N 46°30' W 001°47'0 0.0
2016-Sep-22 04:33N 46°30' W 001°47'0 0.0
2016-Sep-22 03:33N 46°30' W 001°47'0 0.0
2016-Sep-22 00:33N 46°30' W 001°47'0 0.0
2016-Sep-21 23:33N 46°30' W 001°47'0 0.0
2016-Sep-21 22:33N 46°30' W 001°47'0 0.0
2016-Sep-21 19:33N 46°30' W 001°47'0 0.0
2016-Sep-21 16:33N 46°30' W 001°47'0 0.0
2016-Sep-21 09:33N 46°30' W 001°47'0 0.0
2016-Sep-21 08:33N 46°30' W 001°47'0 0.0
2016-Sep-21 05:32N 46°30' W 001°47'9 4.5
2016-Sep-21 03:33N 46°21' W 001°51'1111.0
2016-Sep-21 02:34N 46°10' W 001°49'  

Dump ship's entire track history